sensor_id;sensor_type;location;lat;lon;timestamp;temperature;humidity
3758;DHT22;1894;51.038;13.692;2023-05-10T00:00:55;12.70;81.10
3758;DHT22;1894;51.038;13.692;2023-05-10T00:03:22;12.60;81.70
3758;DHT22;1894;51.038;13.692;2023-05-10T00:05:50;12.60;81.70
3758;DHT22;1894;51.038;13.692;2023-05-10T00:08:17;12.60;82.00
3758;DHT22;1894;51.038;13.692;2023-05-10T00:10:44;12.60;82.20
3758;DHT22;1894;51.038;13.692;2023-05-10T00:13:12;12.50;82.60
3758;DHT22;1894;51.038;13.692;2023-05-10T00:15:39;12.50;83.10
3758;DHT22;1894;51.038;13.692;2023-05-10T00:18:06;12.40;82.90
3758;DHT22;1894;51.038;13.692;2023-05-10T00:20:34;12.40;84.00
3758;DHT22;1894;51.038;13.692;2023-05-10T00:23:01;12.30;84.10
3758;DHT22;1894;51.038;13.692;2023-05-10T00:25:28;12.30;84.40
3758;DHT22;1894;51.038;13.692;2023-05-10T00:27:55;12.30;84.50
3758;DHT22;1894;51.038;13.692;2023-05-10T00:30:24;12.20;85.50
3758;DHT22;1894;51.038;13.692;2023-05-10T00:32:51;12.20;85.80
3758;DHT22;1894;51.038;13.692;2023-05-10T00:35:18;12.10;85.80
3758;DHT22;1894;51.038;13.692;2023-05-10T00:37:47;12.10;86.20
3758;DHT22;1894;51.038;13.692;2023-05-10T00:40:14;12.10;86.90
3758;DHT22;1894;51.038;13.692;2023-05-10T00:42:46;12.00;88.10
3758;DHT22;1894;51.038;13.692;2023-05-10T00:45:13;11.90;88.90
3758;DHT22;1894;51.038;13.692;2023-05-10T00:47:40;11.90;89.50
3758;DHT22;1894;51.038;13.692;2023-05-10T00:50:08;11.80;89.70
3758;DHT22;1894;51.038;13.692;2023-05-10T00:52:36;11.80;90.20
3758;DHT22;1894;51.038;13.692;2023-05-10T00:55:03;11.80;89.90
3758;DHT22;1894;51.038;13.692;2023-05-10T00:57:32;11.90;90.00
3758;DHT22;1894;51.038;13.692;2023-05-10T00:59:59;11.80;90.20
3758;DHT22;1894;51.038;13.692;2023-05-10T01:02:26;11.70;90.40
3758;DHT22;1894;51.038;13.692;2023-05-10T01:04:56;11.70;90.90
3758;DHT22;1894;51.038;13.692;2023-05-10T01:07:23;11.60;91.00
3758;DHT22;1894;51.038;13.692;2023-05-10T01:09:50;11.60;91.30
3758;DHT22;1894;51.038;13.692;2023-05-10T01:12:17;11.60;91.20
3758;DHT22;1894;51.038;13.692;2023-05-10T01:14:45;11.60;91.10
3758;DHT22;1894;51.038;13.692;2023-05-10T01:17:12;11.50;91.30
3758;DHT22;1894;51.038;13.692;2023-05-10T01:19:41;11.50;91.60
3758;DHT22;1894;51.038;13.692;2023-05-10T01:34:11;11.40;92.10
3758;DHT22;1894;51.038;13.692;2023-05-10T01:36:51;11.30;92.80
3758;DHT22;1894;51.038;13.692;2023-05-10T01:39:47;11.30;92.40
3758;DHT22;1894;51.038;13.692;2023-05-10T01:42:21;11.30;92.50
3758;DHT22;1894;51.038;13.692;2023-05-10T01:45:18;11.30;92.80
3758;DHT22;1894;51.038;13.692;2023-05-10T01:47:54;11.30;92.30
3758;DHT22;1894;51.038;13.692;2023-05-10T01:50:29;11.30;92.60
3758;DHT22;1894;51.038;13.692;2023-05-10T01:52:59;11.40;92.30
3758;DHT22;1894;51.038;13.692;2023-05-10T01:55:32;11.40;92.40
3758;DHT22;1894;51.038;13.692;2023-05-10T01:58:15;11.30;92.40
3758;DHT22;1894;51.038;13.692;2023-05-10T02:00:47;11.30;92.50
3758;DHT22;1894;51.038;13.692;2023-05-10T02:03:20;11.30;92.70
3758;DHT22;1894;51.038;13.692;2023-05-10T02:05:49;11.30;93.00
3758;DHT22;1894;51.038;13.692;2023-05-10T02:08:22;11.30;92.90
3758;DHT22;1894;51.038;13.692;2023-05-10T02:10:51;11.20;93.10
3758;DHT22;1894;51.038;13.692;2023-05-10T02:13:23;11.20;93.40
3758;DHT22;1894;51.038;13.692;2023-05-10T02:15:53;11.20;93.80
3758;DHT22;1894;51.038;13.692;2023-05-10T02:18:22;11.20;93.70
3758;DHT22;1894;51.038;13.692;2023-05-10T02:20:52;11.10;93.90
3758;DHT22;1894;51.038;13.692;2023-05-10T02:23:20;11.00;94.50
3758;DHT22;1894;51.038;13.692;2023-05-10T02:25:49;11.00;94.80
3758;DHT22;1894;51.038;13.692;2023-05-10T02:28:21;10.90;95.10
3758;DHT22;1894;51.038;13.692;2023-05-10T02:30:51;10.90;95.10
3758;DHT22;1894;51.038;13.692;2023-05-10T02:33:19;10.90;95.30
3758;DHT22;1894;51.038;13.692;2023-05-10T02:35:47;10.90;95.50
3758;DHT22;1894;51.038;13.692;2023-05-10T02:38:15;10.80;95.90
3758;DHT22;1894;51.038;13.692;2023-05-10T02:40:43;10.80;96.00
3758;DHT22;1894;51.038;13.692;2023-05-10T02:43:13;10.80;96.70
3758;DHT22;1894;51.038;13.692;2023-05-10T02:45:42;10.70;96.60
3758;DHT22;1894;51.038;13.692;2023-05-10T02:48:10;10.70;97.10
3758;DHT22;1894;51.038;13.692;2023-05-10T02:50:38;10.70;97.30
3758;DHT22;1894;51.038;13.692;2023-05-10T02:53:15;10.70;97.70
3758;DHT22;1894;51.038;13.692;2023-05-10T02:55:45;10.70;97.90
3758;DHT22;1894;51.038;13.692;2023-05-10T02:58:17;10.60;98.30
3758;DHT22;1894;51.038;13.692;2023-05-10T03:00:46;10.60;98.50
3758;DHT22;1894;51.038;13.692;2023-05-10T03:03:13;10.50;98.70
3758;DHT22;1894;51.038;13.692;2023-05-10T03:05:40;10.50;98.80
3758;DHT22;1894;51.038;13.692;2023-05-10T03:08:07;10.40;99.50
3758;DHT22;1894;51.038;13.692;2023-05-10T03:11:06;10.50;99.60
3758;DHT22;1894;51.038;13.692;2023-05-10T03:13:48;10.40;99.90
3758;DHT22;1894;51.038;13.692;2023-05-10T03:16:27;10.40;99.90
3758;DHT22;1894;51.038;13.692;2023-05-10T03:19:05;10.40;99.90
3758;DHT22;1894;51.038;13.692;2023-05-10T03:21:38;10.40;99.90
3758;DHT22;1894;51.038;13.692;2023-05-10T03:24:11;10.30;99.90
3758;DHT22;1894;51.038;13.692;2023-05-10T03:26:40;10.30;99.90
3758;DHT22;1894;51.038;13.692;2023-05-10T03:29:14;10.30;99.90
3758;DHT22;1894;51.038;13.692;2023-05-10T03:31:42;10.30;99.90
3758;DHT22;1894;51.038;13.692;2023-05-10T03:34:10;10.30;99.90
3758;DHT22;1894;51.038;13.692;2023-05-10T03:36:38;10.30;99.90
3758;DHT22;1894;51.038;13.692;2023-05-10T03:39:05;10.40;99.90
3758;DHT22;1894;51.038;13.692;2023-05-10T03:41:33;10.30;99.90
3758;DHT22;1894;51.038;13.692;2023-05-10T03:44:00;10.30;99.90
3758;DHT22;1894;51.038;13.692;2023-05-10T03:46:28;10.40;99.90
3758;DHT22;1894;51.038;13.692;2023-05-10T03:48:55;10.30;99.90
3758;DHT22;1894;51.038;13.692;2023-05-10T03:51:23;10.30;99.90
3758;DHT22;1894;51.038;13.692;2023-05-10T03:53:51;10.30;99.90
3758;DHT22;1894;51.038;13.692;2023-05-10T03:56:19;10.40;99.90
3758;DHT22;1894;51.038;13.692;2023-05-10T03:58:47;10.40;99.90
3758;DHT22;1894;51.038;13.692;2023-05-10T04:01:14;10.40;99.90
3758;DHT22;1894;51.038;13.692;2023-05-10T04:03:41;10.50;99.90
3758;DHT22;1894;51.038;13.692;2023-05-10T04:06:09;10.50;99.90
3758;DHT22;1894;51.038;13.692;2023-05-10T04:08:38;10.60;99.90
3758;DHT22;1894;51.038;13.692;2023-05-10T04:11:07;10.60;99.90
3758;DHT22;1894;51.038;13.692;2023-05-10T04:13:34;10.60;99.90
3758;DHT22;1894;51.038;13.692;2023-05-10T04:16:02;10.70;99.90
3758;DHT22;1894;51.038;13.692;2023-05-10T04:18:29;10.80;99.90
3758;DHT22;1894;51.038;13.692;2023-05-10T04:20:57;10.80;99.90
3758;DHT22;1894;51.038;13.692;2023-05-10T04:23:24;11.00;99.90
3758;DHT22;1894;51.038;13.692;2023-05-10T04:25:51;11.00;99.90
3758;DHT22;1894;51.038;13.692;2023-05-10T04:28:18;11.00;99.90
3758;DHT22;1894;51.038;13.692;2023-05-10T04:30:45;11.10;99.90
3758;DHT22;1894;51.038;13.692;2023-05-10T04:33:13;11.20;99.90
3758;DHT22;1894;51.038;13.692;2023-05-10T04:35:41;11.20;99.90
3758;DHT22;1894;51.038;13.692;2023-05-10T04:38:08;11.30;99.90
3758;DHT22;1894;51.038;13.692;2023-05-10T04:40:35;11.40;99.90
3758;DHT22;1894;51.038;13.692;2023-05-10T04:43:02;11.50;99.90
3758;DHT22;1894;51.038;13.692;2023-05-10T04:45:29;11.60;99.90
3758;DHT22;1894;51.038;13.692;2023-05-10T04:47:56;11.70;99.80
3758;DHT22;1894;51.038;13.692;2023-05-10T04:50:23;11.80;99.60
3758;DHT22;1894;51.038;13.692;2023-05-10T04:52:51;11.90;99.40
3758;DHT22;1894;51.038;13.692;2023-05-10T04:55:19;11.90;98.90
3758;DHT22;1894;51.038;13.692;2023-05-10T04:57:46;12.00;98.30
3758;DHT22;1894;51.038;13.692;2023-05-10T05:00:13;12.10;98.00
3758;DHT22;1894;51.038;13.692;2023-05-10T05:02:44;12.20;98.10
3758;DHT22;1894;51.038;13.692;2023-05-10T05:05:12;12.40;97.90
3758;DHT22;1894;51.038;13.692;2023-05-10T05:07:40;12.40;97.70
3758;DHT22;1894;51.038;13.692;2023-05-10T05:10:08;12.60;97.00
3758;DHT22;1894;51.038;13.692;2023-05-10T05:12:35;12.70;96.60
3758;DHT22;1894;51.038;13.692;2023-05-10T05:15:02;12.80;96.10
3758;DHT22;1894;51.038;13.692;2023-05-10T05:17:30;12.90;95.50
3758;DHT22;1894;51.038;13.692;2023-05-10T05:19:58;12.90;95.40
3758;DHT22;1894;51.038;13.692;2023-05-10T05:22:25;13.10;95.40
3758;DHT22;1894;51.038;13.692;2023-05-10T05:24:55;13.30;95.10
3758;DHT22;1894;51.038;13.692;2023-05-10T05:27:23;13.40;94.60
3758;DHT22;1894;51.038;13.692;2023-05-10T05:29:53;13.50;94.70
3758;DHT22;1894;51.038;13.692;2023-05-10T05:32:21;13.60;93.70
3758;DHT22;1894;51.038;13.692;2023-05-10T05:34:49;13.80;93.40
3758;DHT22;1894;51.038;13.692;2023-05-10T05:37:18;14.00;93.30
3758;DHT22;1894;51.038;13.692;2023-05-10T05:39:46;14.00;93.00
3758;DHT22;1894;51.038;13.692;2023-05-10T05:42:13;14.10;92.60
3758;DHT22;1894;51.038;13.692;2023-05-10T05:44:41;14.10;92.60
3758;DHT22;1894;51.038;13.692;2023-05-10T05:47:08;14.20;91.80
3758;DHT22;1894;51.038;13.692;2023-05-10T05:49:36;14.40;91.70
3758;DHT22;1894;51.038;13.692;2023-05-10T05:52:04;14.40;91.80
3758;DHT22;1894;51.038;13.692;2023-05-10T05:54:31;14.50;91.70
3758;DHT22;1894;51.038;13.692;2023-05-10T05:57:00;14.60;90.90
3758;DHT22;1894;51.038;13.692;2023-05-10T05:59:27;14.80;90.80
3758;DHT22;1894;51.038;13.692;2023-05-10T06:01:54;14.90;90.70
3758;DHT22;1894;51.038;13.692;2023-05-10T06:04:21;15.00;90.10
3758;DHT22;1894;51.038;13.692;2023-05-10T06:06:49;15.00;90.30
3758;DHT22;1894;51.038;13.692;2023-05-10T06:09:16;15.20;90.40
3758;DHT22;1894;51.038;13.692;2023-05-10T06:11:43;15.60;90.00
3758;DHT22;1894;51.038;13.692;2023-05-10T06:14:10;15.50;89.00
3758;DHT22;1894;51.038;13.692;2023-05-10T06:16:37;15.70;88.60
3758;DHT22;1894;51.038;13.692;2023-05-10T06:19:04;15.80;86.90
3758;DHT22;1894;51.038;13.692;2023-05-10T06:21:31;15.80;86.80
3758;DHT22;1894;51.038;13.692;2023-05-10T06:23:59;15.80;86.30
3758;DHT22;1894;51.038;13.692;2023-05-10T06:26:26;15.80;85.70
3758;DHT22;1894;51.038;13.692;2023-05-10T06:28:53;16.00;86.30
3758;DHT22;1894;51.038;13.692;2023-05-10T06:31:20;16.20;86.60
3758;DHT22;1894;51.038;13.692;2023-05-10T06:33:47;16.10;85.10
3758;DHT22;1894;51.038;13.692;2023-05-10T06:36:14;16.10;85.90
3758;DHT22;1894;51.038;13.692;2023-05-10T06:38:41;16.00;84.40
3758;DHT22;1894;51.038;13.692;2023-05-10T06:41:09;16.10;83.00
3758;DHT22;1894;51.038;13.692;2023-05-10T06:43:36;16.10;83.50
3758;DHT22;1894;51.038;13.692;2023-05-10T06:46:06;16.20;82.70
3758;DHT22;1894;51.038;13.692;2023-05-10T06:48:34;16.40;81.60
3758;DHT22;1894;51.038;13.692;2023-05-10T06:51:01;16.40;81.90
3758;DHT22;1894;51.038;13.692;2023-05-10T06:53:28;16.40;82.30
3758;DHT22;1894;51.038;13.692;2023-05-10T06:55:55;16.70;81.80
3758;DHT22;1894;51.038;13.692;2023-05-10T06:58:22;16.60;81.90
3758;DHT22;1894;51.038;13.692;2023-05-10T07:00:50;16.70;81.10
3758;DHT22;1894;51.038;13.692;2023-05-10T07:03:17;17.00;81.30
3758;DHT22;1894;51.038;13.692;2023-05-10T07:05:44;17.00;79.30
3758;DHT22;1894;51.038;13.692;2023-05-10T07:08:11;17.10;79.00
3758;DHT22;1894;51.038;13.692;2023-05-10T07:10:40;16.70;79.50
3758;DHT22;1894;51.038;13.692;2023-05-10T07:13:07;16.90;80.00
3758;DHT22;1894;51.038;13.692;2023-05-10T07:15:34;17.00;79.40
3758;DHT22;1894;51.038;13.692;2023-05-10T07:18:01;17.20;78.10
3758;DHT22;1894;51.038;13.692;2023-05-10T07:20:28;17.20;79.30
3758;DHT22;1894;51.038;13.692;2023-05-10T07:22:56;17.30;78.30
3758;DHT22;1894;51.038;13.692;2023-05-10T07:25:23;17.50;79.00
3758;DHT22;1894;51.038;13.692;2023-05-10T07:27:51;17.60;77.50
3758;DHT22;1894;51.038;13.692;2023-05-10T07:30:18;17.40;79.00
3758;DHT22;1894;51.038;13.692;2023-05-10T07:32:46;17.20;78.20
3758;DHT22;1894;51.038;13.692;2023-05-10T07:35:13;17.20;79.90
3758;DHT22;1894;51.038;13.692;2023-05-10T07:37:41;17.50;79.00
3758;DHT22;1894;51.038;13.692;2023-05-10T07:40:08;17.50;77.90
3758;DHT22;1894;51.038;13.692;2023-05-10T07:42:36;17.40;79.50
3758;DHT22;1894;51.038;13.692;2023-05-10T07:45:04;17.70;78.70
3758;DHT22;1894;51.038;13.692;2023-05-10T07:47:31;17.60;79.90
3758;DHT22;1894;51.038;13.692;2023-05-10T07:49:59;17.70;78.90
3758;DHT22;1894;51.038;13.692;2023-05-10T07:52:26;17.90;77.10
3758;DHT22;1894;51.038;13.692;2023-05-10T07:54:54;17.90;75.90
3758;DHT22;1894;51.038;13.692;2023-05-10T07:57:23;17.90;75.90
3758;DHT22;1894;51.038;13.692;2023-05-10T07:59:50;17.90;76.30
3758;DHT22;1894;51.038;13.692;2023-05-10T08:02:17;18.00;78.20
3758;DHT22;1894;51.038;13.692;2023-05-10T08:04:45;18.40;78.00
3758;DHT22;1894;51.038;13.692;2023-05-10T08:07:12;18.50;77.00
3758;DHT22;1894;51.038;13.692;2023-05-10T08:09:39;18.60;76.30
3758;DHT22;1894;51.038;13.692;2023-05-10T08:12:06;18.70;76.70
3758;DHT22;1894;51.038;13.692;2023-05-10T08:14:33;18.80;76.30
3758;DHT22;1894;51.038;13.692;2023-05-10T08:17:03;18.60;75.80
3758;DHT22;1894;51.038;13.692;2023-05-10T08:19:30;18.80;75.10
3758;DHT22;1894;51.038;13.692;2023-05-10T08:21:57;18.80;75.20
3758;DHT22;1894;51.038;13.692;2023-05-10T08:24:25;18.90;74.60
3758;DHT22;1894;51.038;13.692;2023-05-10T08:26:52;19.10;74.70
3758;DHT22;1894;51.038;13.692;2023-05-10T08:29:19;19.20;73.80
3758;DHT22;1894;51.038;13.692;2023-05-10T08:31:46;19.30;74.00
3758;DHT22;1894;51.038;13.692;2023-05-10T08:34:13;19.10;72.30
3758;DHT22;1894;51.038;13.692;2023-05-10T08:36:40;19.20;74.00
3758;DHT22;1894;51.038;13.692;2023-05-10T08:39:07;19.20;73.60
3758;DHT22;1894;51.038;13.692;2023-05-10T08:41:46;19.20;74.60
3758;DHT22;1894;51.038;13.692;2023-05-10T08:44:15;19.30;73.60
3758;DHT22;1894;51.038;13.692;2023-05-10T08:46:46;19.50;73.40
3758;DHT22;1894;51.038;13.692;2023-05-10T08:49:17;19.60;72.90
3758;DHT22;1894;51.038;13.692;2023-05-10T08:51:54;19.60;72.00
3758;DHT22;1894;51.038;13.692;2023-05-10T08:54:22;19.70;72.90
3758;DHT22;1894;51.038;13.692;2023-05-10T08:56:50;19.80;75.80
3758;DHT22;1894;51.038;13.692;2023-05-10T08:59:17;19.90;73.30
3758;DHT22;1894;51.038;13.692;2023-05-10T09:01:45;19.70;76.00
3758;DHT22;1894;51.038;13.692;2023-05-10T09:04:14;19.80;74.50
3758;DHT22;1894;51.038;13.692;2023-05-10T09:06:42;19.90;73.00
3758;DHT22;1894;51.038;13.692;2023-05-10T09:09:09;19.70;73.50
3758;DHT22;1894;51.038;13.692;2023-05-10T09:11:36;19.60;73.70
3758;DHT22;1894;51.038;13.692;2023-05-10T09:14:04;19.80;74.90
3758;DHT22;1894;51.038;13.692;2023-05-10T09:16:31;20.00;76.10
3758;DHT22;1894;51.038;13.692;2023-05-10T09:18:58;20.20;73.10
3758;DHT22;1894;51.038;13.692;2023-05-10T09:21:25;20.20;73.30
3758;DHT22;1894;51.038;13.692;2023-05-10T09:23:53;20.30;72.70
3758;DHT22;1894;51.038;13.692;2023-05-10T09:26:24;20.50;74.20
3758;DHT22;1894;51.038;13.692;2023-05-10T09:28:57;20.50;73.00
3758;DHT22;1894;51.038;13.692;2023-05-10T09:34:22;20.50;73.70
3758;DHT22;1894;51.038;13.692;2023-05-10T09:36:57;20.50;72.00
3758;DHT22;1894;51.038;13.692;2023-05-10T09:39:35;20.40;75.30
3758;DHT22;1894;51.038;13.692;2023-05-10T09:42:08;20.70;75.70
3758;DHT22;1894;51.038;13.692;2023-05-10T09:44:36;21.00;72.10
3758;DHT22;1894;51.038;13.692;2023-05-10T09:47:04;21.00;73.30
3758;DHT22;1894;51.038;13.692;2023-05-10T09:49:32;20.80;73.40
3758;DHT22;1894;51.038;13.692;2023-05-10T09:52:05;21.10;73.40
3758;DHT22;1894;51.038;13.692;2023-05-10T09:54:33;21.10;71.00
3758;DHT22;1894;51.038;13.692;2023-05-10T09:57:01;21.20;71.60
3758;DHT22;1894;51.038;13.692;2023-05-10T09:59:29;21.40;70.70
3758;DHT22;1894;51.038;13.692;2023-05-10T10:02:00;21.40;70.50
3758;DHT22;1894;51.038;13.692;2023-05-10T10:04:28;21.40;70.90
3758;DHT22;1894;51.038;13.692;2023-05-10T10:07:00;21.40;75.30
3758;DHT22;1894;51.038;13.692;2023-05-10T10:09:32;21.60;72.40
3758;DHT22;1894;51.038;13.692;2023-05-10T10:12:01;21.70;76.50
3758;DHT22;1894;51.038;13.692;2023-05-10T10:14:29;21.80;75.90
3758;DHT22;1894;51.038;13.692;2023-05-10T10:16:56;21.60;75.80
3758;DHT22;1894;51.038;13.692;2023-05-10T10:19:34;21.40;73.60
3758;DHT22;1894;51.038;13.692;2023-05-10T10:22:02;21.50;72.40
3758;DHT22;1894;51.038;13.692;2023-05-10T10:24:30;21.50;73.50
3758;DHT22;1894;51.038;13.692;2023-05-10T10:27:04;21.60;72.10
3758;DHT22;1894;51.038;13.692;2023-05-10T10:35:46;21.80;72.90
3758;DHT22;1894;51.038;13.692;2023-05-10T10:38:13;21.70;69.20
3758;DHT22;1894;51.038;13.692;2023-05-10T10:40:40;21.80;72.40
3758;DHT22;1894;51.038;13.692;2023-05-10T10:43:25;22.00;72.90
3758;DHT22;1894;51.038;13.692;2023-05-10T10:48:41;22.00;70.10
3758;DHT22;1894;51.038;13.692;2023-05-10T10:51:08;22.20;70.10
3758;DHT22;1894;51.038;13.692;2023-05-10T10:53:41;22.30;69.80
3758;DHT22;1894;51.038;13.692;2023-05-10T10:56:11;22.30;70.80
3758;DHT22;1894;51.038;13.692;2023-05-10T10:58:41;22.40;70.60
3758;DHT22;1894;51.038;13.692;2023-05-10T11:01:16;22.20;71.00
3758;DHT22;1894;51.038;13.692;2023-05-10T11:06:33;22.50;68.00
3758;DHT22;1894;51.038;13.692;2023-05-10T11:09:07;22.30;69.20
3758;DHT22;1894;51.038;13.692;2023-05-10T11:11:36;21.90;66.10
3758;DHT22;1894;51.038;13.692;2023-05-10T11:14:04;22.20;68.80
3758;DHT22;1894;51.038;13.692;2023-05-10T11:16:43;22.70;66.90
3758;DHT22;1894;51.038;13.692;2023-05-10T11:19:15;23.00;66.90
3758;DHT22;1894;51.038;13.692;2023-05-10T11:21:50;23.40;65.90
3758;DHT22;1894;51.038;13.692;2023-05-10T11:24:27;23.90;64.40
3758;DHT22;1894;51.038;13.692;2023-05-10T11:26:55;24.00;62.40
3758;DHT22;1894;51.038;13.692;2023-05-10T11:29:23;24.00;62.00
3758;DHT22;1894;51.038;13.692;2023-05-10T11:31:53;23.20;62.60
3758;DHT22;1894;51.038;13.692;2023-05-10T11:34:24;23.20;63.60
3758;DHT22;1894;51.038;13.692;2023-05-10T11:36:54;23.20;64.00
3758;DHT22;1894;51.038;13.692;2023-05-10T11:39:29;23.40;64.00
3758;DHT22;1894;51.038;13.692;2023-05-10T11:41:58;23.90;62.40
3758;DHT22;1894;51.038;13.692;2023-05-10T11:44:32;24.20;61.50
3758;DHT22;1894;51.038;13.692;2023-05-10T11:47:01;24.60;60.30
3758;DHT22;1894;51.038;13.692;2023-05-10T11:49:28;25.70;59.00
3758;DHT22;1894;51.038;13.692;2023-05-10T11:52:08;26.40;57.10
3758;DHT22;1894;51.038;13.692;2023-05-10T11:54:35;27.40;56.80
3758;DHT22;1894;51.038;13.692;2023-05-10T11:57:03;26.80;54.80
3758;DHT22;1894;51.038;13.692;2023-05-10T11:59:30;27.30;53.30
3758;DHT22;1894;51.038;13.692;2023-05-10T12:01:58;28.50;52.40
3758;DHT22;1894;51.038;13.692;2023-05-10T12:04:25;29.10;49.50
3758;DHT22;1894;51.038;13.692;2023-05-10T12:06:54;30.20;47.90
3758;DHT22;1894;51.038;13.692;2023-05-10T12:09:22;29.90;46.30
3758;DHT22;1894;51.038;13.692;2023-05-10T12:11:56;30.20;45.40
3758;DHT22;1894;51.038;13.692;2023-05-10T12:14:26;31.10;44.70
3758;DHT22;1894;51.038;13.692;2023-05-10T12:16:53;31.20;44.00
3758;DHT22;1894;51.038;13.692;2023-05-10T12:19:20;30.70;44.00
3758;DHT22;1894;51.038;13.692;2023-05-10T12:21:47;31.50;43.90
3758;DHT22;1894;51.038;13.692;2023-05-10T12:24:15;32.30;41.70
3758;DHT22;1894;51.038;13.692;2023-05-10T12:26:45;31.50;42.30
3758;DHT22;1894;51.038;13.692;2023-05-10T12:29:18;31.20;42.30
3758;DHT22;1894;51.038;13.692;2023-05-10T12:31:58;31.90;40.50
3758;DHT22;1894;51.038;13.692;2023-05-10T12:34:34;31.50;39.70
3758;DHT22;1894;51.038;13.692;2023-05-10T12:37:03;30.70;40.50
3758;DHT22;1894;51.038;13.692;2023-05-10T12:39:44;29.40;41.20
3758;DHT22;1894;51.038;13.692;2023-05-10T12:42:12;29.80;41.40
3758;DHT22;1894;51.038;13.692;2023-05-10T12:44:39;30.30;40.70
3758;DHT22;1894;51.038;13.692;2023-05-10T12:47:07;30.20;40.80
3758;DHT22;1894;51.038;13.692;2023-05-10T12:49:34;30.20;40.90
3758;DHT22;1894;51.038;13.692;2023-05-10T12:52:01;30.70;39.70
3758;DHT22;1894;51.038;13.692;2023-05-10T12:54:28;30.30;39.70
3758;DHT22;1894;51.038;13.692;2023-05-10T12:56:55;30.30;41.10
3758;DHT22;1894;51.038;13.692;2023-05-10T12:59:22;30.00;41.30
3758;DHT22;1894;51.038;13.692;2023-05-10T13:01:50;29.00;39.40
3758;DHT22;1894;51.038;13.692;2023-05-10T13:04:17;28.30;42.80
3758;DHT22;1894;51.038;13.692;2023-05-10T13:06:44;28.60;41.30
3758;DHT22;1894;51.038;13.692;2023-05-10T13:09:11;28.70;40.40
3758;DHT22;1894;51.038;13.692;2023-05-10T13:11:38;28.80;41.80
3758;DHT22;1894;51.038;13.692;2023-05-10T13:14:05;28.70;39.70
3758;DHT22;1894;51.038;13.692;2023-05-10T13:16:32;27.90;40.60
3758;DHT22;1894;51.038;13.692;2023-05-10T13:19:00;27.30;44.30
3758;DHT22;1894;51.038;13.692;2023-05-10T13:21:27;28.00;43.20
3758;DHT22;1894;51.038;13.692;2023-05-10T13:23:54;27.90;42.90
3758;DHT22;1894;51.038;13.692;2023-05-10T13:26:22;27.00;42.60
3758;DHT22;1894;51.038;13.692;2023-05-10T13:28:49;27.50;42.80
3758;DHT22;1894;51.038;13.692;2023-05-10T13:31:18;27.90;42.90
3758;DHT22;1894;51.038;13.692;2023-05-10T13:33:45;27.60;41.10
3758;DHT22;1894;51.038;13.692;2023-05-10T13:36:13;27.80;40.90
3758;DHT22;1894;51.038;13.692;2023-05-10T13:38:40;27.60;42.00
3758;DHT22;1894;51.038;13.692;2023-05-10T13:41:07;28.70;40.90
3758;DHT22;1894;51.038;13.692;2023-05-10T13:43:34;29.50;40.50
3758;DHT22;1894;51.038;13.692;2023-05-10T13:46:02;29.80;39.90
3758;DHT22;1894;51.038;13.692;2023-05-10T13:48:29;29.80;39.10
3758;DHT22;1894;51.038;13.692;2023-05-10T13:50:56;30.20;37.90
3758;DHT22;1894;51.038;13.692;2023-05-10T13:53:23;29.80;38.50
3758;DHT22;1894;51.038;13.692;2023-05-10T13:55:51;30.20;38.50
3758;DHT22;1894;51.038;13.692;2023-05-10T13:58:18;30.50;38.40
3758;DHT22;1894;51.038;13.692;2023-05-10T14:00:45;31.20;37.00
3758;DHT22;1894;51.038;13.692;2023-05-10T14:03:12;31.30;37.50
3758;DHT22;1894;51.038;13.692;2023-05-10T14:05:40;29.80;38.80
3758;DHT22;1894;51.038;13.692;2023-05-10T14:08:07;29.90;39.10
3758;DHT22;1894;51.038;13.692;2023-05-10T14:10:36;29.50;39.90
3758;DHT22;1894;51.038;13.692;2023-05-10T14:13:03;28.70;43.80
3758;DHT22;1894;51.038;13.692;2023-05-10T14:15:30;28.50;44.40
3758;DHT22;1894;51.038;13.692;2023-05-10T14:17:57;28.70;41.90
3758;DHT22;1894;51.038;13.692;2023-05-10T14:20:25;29.20;40.80
3758;DHT22;1894;51.038;13.692;2023-05-10T14:22:52;28.50;39.70
3758;DHT22;1894;51.038;13.692;2023-05-10T14:25:19;27.80;42.00
3758;DHT22;1894;51.038;13.692;2023-05-10T14:27:46;25.30;49.10
3758;DHT22;1894;51.038;13.692;2023-05-10T14:30:14;25.40;53.10
3758;DHT22;1894;51.038;13.692;2023-05-10T14:32:41;25.20;54.30
3758;DHT22;1894;51.038;13.692;2023-05-10T14:35:08;26.40;53.30
3758;DHT22;1894;51.038;13.692;2023-05-10T14:37:39;26.90;52.00
3758;DHT22;1894;51.038;13.692;2023-05-10T14:40:06;27.20;51.60
3758;DHT22;1894;51.038;13.692;2023-05-10T14:42:34;26.60;51.70
3758;DHT22;1894;51.038;13.692;2023-05-10T14:45:02;26.30;53.40
3758;DHT22;1894;51.038;13.692;2023-05-10T14:47:29;26.50;53.30
3758;DHT22;1894;51.038;13.692;2023-05-10T14:49:56;25.70;54.90
3758;DHT22;1894;51.038;13.692;2023-05-10T14:52:25;24.70;57.70
3758;DHT22;1894;51.038;13.692;2023-05-10T14:54:52;24.30;60.70
3758;DHT22;1894;51.038;13.692;2023-05-10T14:57:19;24.00;62.90
3758;DHT22;1894;51.038;13.692;2023-05-10T14:59:46;23.40;64.70
3758;DHT22;1894;51.038;13.692;2023-05-10T15:02:14;23.40;66.80
3758;DHT22;1894;51.038;13.692;2023-05-10T15:04:42;23.20;67.70
3758;DHT22;1894;51.038;13.692;2023-05-10T15:07:10;23.90;66.20
3758;DHT22;1894;51.038;13.692;2023-05-10T15:09:41;23.60;66.10
3758;DHT22;1894;51.038;13.692;2023-05-10T15:12:08;23.80;67.10
3758;DHT22;1894;51.038;13.692;2023-05-10T15:14:35;24.00;66.60
3758;DHT22;1894;51.038;13.692;2023-05-10T15:17:05;23.90;67.40
3758;DHT22;1894;51.038;13.692;2023-05-10T15:19:33;24.00;68.80
3758;DHT22;1894;51.038;13.692;2023-05-10T15:22:00;24.70;66.80
3758;DHT22;1894;51.038;13.692;2023-05-10T15:24:27;25.60;64.20
3758;DHT22;1894;51.038;13.692;2023-05-10T15:26:54;25.90;62.50
3758;DHT22;1894;51.038;13.692;2023-05-10T15:29:21;25.30;63.80
3758;DHT22;1894;51.038;13.692;2023-05-10T15:31:50;23.70;66.60
3758;DHT22;1894;51.038;13.692;2023-05-10T15:34:18;23.20;69.70
3758;DHT22;1894;51.038;13.692;2023-05-10T15:36:45;22.40;72.60
3758;DHT22;1894;51.038;13.692;2023-05-10T15:39:12;21.70;74.40
3758;DHT22;1894;51.038;13.692;2023-05-10T15:41:39;21.00;78.60
3758;DHT22;1894;51.038;13.692;2023-05-10T15:44:07;20.90;80.50
3758;DHT22;1894;51.038;13.692;2023-05-10T15:46:34;21.00;79.70
3758;DHT22;1894;51.038;13.692;2023-05-10T15:49:01;20.80;81.20
3758;DHT22;1894;51.038;13.692;2023-05-10T15:51:29;20.60;81.90
3758;DHT22;1894;51.038;13.692;2023-05-10T15:53:56;20.30;83.70
3758;DHT22;1894;51.038;13.692;2023-05-10T15:56:33;20.20;84.70
3758;DHT22;1894;51.038;13.692;2023-05-10T15:59:01;19.80;86.20
3758;DHT22;1894;51.038;13.692;2023-05-10T16:01:30;19.60;88.40
3758;DHT22;1894;51.038;13.692;2023-05-10T16:03:59;19.70;88.80
3758;DHT22;1894;51.038;13.692;2023-05-10T16:06:37;19.70;89.50
3758;DHT22;1894;51.038;13.692;2023-05-10T16:09:05;19.60;90.50
3758;DHT22;1894;51.038;13.692;2023-05-10T16:11:32;19.40;90.30
3758;DHT22;1894;51.038;13.692;2023-05-10T16:13:59;19.30;91.10
3758;DHT22;1894;51.038;13.692;2023-05-10T16:16:27;19.40;91.10
3758;DHT22;1894;51.038;13.692;2023-05-10T16:18:55;19.30;91.20
3758;DHT22;1894;51.038;13.692;2023-05-10T16:21:23;19.30;91.60